AirNav   Pilot Hours Calculator
 
 1371 users online  

63B Limington-Harmon Airport
Limington, Maine, USA

GOING TO LIMINGTON?


FAA INFORMATION EFFECTIVE 04 NOVEMBER 2021

Location

FAA Identifier: 63B
Lat/Long: 43-45-46.9000N 070-40-20.9000W
43-45.781667N 070-40.348333W
43.7630278,-70.6724722
(estimated)
Elevation: 292.3 ft. / 89.1 m (surveyed)
Variation: 17W (1985)
From city: 3 miles N of LIMINGTON, ME
Time zone: UTC -4 (UTC -5 during Standard Time)
Zip code: 04049

Airport Operations

Airport use: Open to the public
Activation date: 09/1975
Control tower: no
ARTCC: BOSTON CENTER
FSS: BANGOR FLIGHT SERVICE STATION
NOTAMs facility: BGR (NOTAM-D service available)
Attendance: UNATTENDED UNATTENDED UNATTENDED
Pattern altitude: 1392.3 ft. MSL
Wind indicator: lighted
Segmented circle: no
Lights: ACTVT LIRL RWY 11/29 5 CLICKS - CTAF.

Airport Communications

CTAF/UNICOM: 122.7
PORTLAND APPROACH: 119.75
PORTLAND DEPARTURE: 119.75
WX ASOS at PWM (17 nm SE): 119.05 (207-874-7914)
WX ASOS at IZG (18 nm NW): 135.775 (207-935-2882)

Nearby radio navigation aids

VOR radial/distance  VOR name  Freq  Var
ENEr010/20.4KENNEBUNK VOR/DME117.1017W

 
NDB name  Hdg/Dist  Freq  Var  ID
ROLLINS028/33.326016WESG . ... --.

Airport Services

Fuel available: 100LL
100LL:24 HR. SELF-SERVE FUEL WITH MAJOR CREDIT CARD.
Parking: hangars and tiedowns
Airframe service: NONE
Powerplant service: NONE

Runway Information

Runway 11/29

Dimensions: 2973 x 50 ft. / 906 x 15 m
Surface: asphalt, in fair condition
Runway edge lights: non-standard
NON-STD LIRL. RWY 29 HAS ONE THR LGT 175 FT FM THR, RWY 11 HAS TWO THR LGTS 320 FT FM THR, RWY LGTS SPACED AT 400 FT, MANY LGTS MISG.
Runway edge markings: MKD AS BASIC. NRS DSPLCD 167 FT FM THR.
RUNWAY 11  RUNWAY 29
Latitude: 43-45.794253N43-45.769358N
Longitude: 070-40.685082W070-40.010848W
Elevation: 292.3 ft.279.1 ft.
Traffic pattern: leftleft
Markings: basic, in fair conditionbasic, in fair condition
Touchdown point: yes, no lightsyes, no lights
Obstructions: 25 ft. trees, 201 ft. from runway, 140 ft. both sides of centerline
+2 FT- 20 FT BRUSH AND TREES 0 FT- 200 FT FM THR; +3 FT- 5 FT DITCH 0 FT- 200 FT FM THR, 50 FT RIGHT OF CNTRLN.
55 ft. trees, 327 ft. from runway, 125 ft. right of centerline, 2:1 slope to clear
+15 FT ROAD 50-200 FT FM THR 0-125 FT RIGHT; +25 FT POLE 50 FT FM THR 100 FT RIGHT; +35 FT PWR LN 0-200 FT FM THR, 125 FT RIGHT; FUEL TANK 0 FT FM THR, 125 FT RIGHT.

Airport Ownership and Management from official FAA records

Ownership: Privately-owned
Owner: LIMINGTON AIRPORT AUTHORITY, LLC
P.O. BOX 483
LIMINGTON, ME 04049
Phone 207-637-2121
Manager: RONALD G. MAIER
22 LUCILLE ST.
WEST BROOK, ME 04092
Phone (207) 318-4427
EMER FONE: 207-318-4427.

Airport Operational Statistics

Aircraft based on the field: 70
Single engine airplanes: 65
Multi engine airplanes: 2
Helicopters: 1
Ultralights: 2
    
Aircraft operations: avg 41/day *
67% local general aviation
33% transient general aviation
<1% military
* for 12-month period ending 14 August 2019

Additional Remarks

WILDLIFE ON OR INVOF ARPT.
FOR CD CTC PORTLAND APCH AT 207-874-7320, WHEN APCH CLSD CTC BOSTON ARTCC AT 603-879-6859.

Instrument Procedures

There are no published instrument procedures at 63B.

Some nearby airports with instrument procedures:

KPWM - Portland International Jetport (17 nm SE)
KIZG - Eastern Slopes Regional Airport (18 nm NW)
B19 - Biddeford Municipal Airport (20 nm SE)
KSFM - Sanford Seacoast Regional Airport (22 nm S)
KLEW - Auburn/Lewiston Municipal Airport (24 nm NE)
 
Loc | Ops | Rwys | IFR | FBO | Links
Com | Nav | Svcs | Stats | Notes
Area around 63B (Limington-Harmon Airport)
 
Road maps at: MapQuest Bing Google
 
Aerial photo
WARNING: Photo may not be current or correct
Aerial photo of 63B (Limington-Harmon Airport)
Photo by Pete Chaisson- Portland Flight Services
Photo taken 25-Sep-2014
looking southwest.

Do you have a better or more recent aerial photo of Limington-Harmon Airport that you would like to share? If so, please send us your photo.

 
Sectional chart

 
Airport distance calculator
Flying to Limington-Harmon Airport? Find the distance to fly.

From to 63B

Sunrise and sunset
Times for 28-Nov-2021
 Local
(UTC-5)
 Zulu
(UTC)
Morning civil twilight06:2211:22
Sunrise06:5411:54
Sunset16:0721:07
Evening civil twilight16:3921:39

Current date and time
Zulu (UTC)  28-Nov-2021 16:07:27
Local (UTC-5)  28-Nov-2021 11:07:27
 
METAR
KPWM 
18nm SE 
281551Z 31004KT 10SM SCT250 00/M09 A2983 RMK AO2 SLP102 T00001094
KIZG 
18nm NW 
281554Z AUTO 00000KT 10SM CLR 00/M13 A2981 RMK AO2 SLP100 T00001133
KSFM 
23nm S 
281556Z AUTO 24008KT 10SM 01/M11 A2983 RMK AO2 SLP109 T00111106 FZRANO $
KLEW 
24nm NE 
281556Z AUTO 31007KT 10SM CLR 01/M11 A2982 RMK AO2 SLP107 T00061111 FZRANO
KDAW 
31nm S 
281551Z AUTO VRB06KT 10SM CLR 00/M11 A2983 RMK AO2 SLP104 T00001106
KLCI 
34nm W 
281556Z AUTO 23007KT 10SM OVC120 M02/M09 A2983 RMK AO2 SLP109 T10171094 FZRANO
TAF
KPWM 
18nm SE 
281132Z 2812/2912 27006KT P6SM SCT250 FM290500 00000KT 4SM -SN BR BKN040 FM290800 02005KT 2SM -SN BR OVC015
NOTAMs
Click for the latest NOTAMs
NOTAMs are issued by the DoD/FAA and will open in a separate window not controlled by AirNav.

 

 
 

FBO, Fuel Providers, and Aircraft Ground Support

  
 Business Name 
 
 Contact 
 
 Services / Description 
 
Fuel Prices
 
Comments
  
 Limington-Harmon Airport
207-637-2121
[web site]
[email]
Airport management, Aviation fuel, Aircraft parking (ramp or tiedown), Hangars, Passenger terminal and lounge, Aircraft maintenance, Aircraft modifications, Aircraft painting, ...

More info about Limington-Harmon Airport
independent
100LL
SS $5.99 
 Updated 09-Sep-2021
 
   3 read write
SS=Self service
Update Fuel Prices
 

Would you like to see your business listed on this page?

 If your business provides an interesting product or service to pilots, flight crews, aircraft, or users of the Limington-Harmon Airport, you should consider listing it here.  To start the listing process, click on the button below
 
Add a business
 

Other Pages about Limington-Harmon Airport

www.limington-harmonairport.com
 
Update a link
 
Copyright © AirNav, LLC. All rights reserved. Privacy Policy  Contact